sensor_id;sensor_type;location;lat;lon;timestamp;temperature;humidity
11385;DHT22;5747;56.748;13.882;2023-05-10T00:01:32;4.70;99.90
11385;DHT22;5747;56.748;13.882;2023-05-10T00:04:02;4.70;99.90
11385;DHT22;5747;56.748;13.882;2023-05-10T00:06:30;4.70;99.90
11385;DHT22;5747;56.748;13.882;2023-05-10T00:08:59;4.70;99.90
11385;DHT22;5747;56.748;13.882;2023-05-10T00:11:27;4.60;99.90
11385;DHT22;5747;56.748;13.882;2023-05-10T00:13:55;4.60;99.90
11385;DHT22;5747;56.748;13.882;2023-05-10T00:16:23;4.50;99.90
11385;DHT22;5747;56.748;13.882;2023-05-10T00:18:51;4.60;99.90
11385;DHT22;5747;56.748;13.882;2023-05-10T00:21:20;4.60;99.90
11385;DHT22;5747;56.748;13.882;2023-05-10T00:23:48;4.60;99.90
11385;DHT22;5747;56.748;13.882;2023-05-10T00:26:16;4.70;99.90
11385;DHT22;5747;56.748;13.882;2023-05-10T00:28:50;4.60;99.90
11385;DHT22;5747;56.748;13.882;2023-05-10T00:31:19;4.60;99.90
11385;DHT22;5747;56.748;13.882;2023-05-10T00:33:47;4.50;99.90
11385;DHT22;5747;56.748;13.882;2023-05-10T00:36:15;4.50;99.90
11385;DHT22;5747;56.748;13.882;2023-05-10T00:38:44;4.40;99.90
11385;DHT22;5747;56.748;13.882;2023-05-10T00:41:12;4.50;99.90
11385;DHT22;5747;56.748;13.882;2023-05-10T00:43:41;4.50;99.90
11385;DHT22;5747;56.748;13.882;2023-05-10T00:46:09;4.50;99.90
11385;DHT22;5747;56.748;13.882;2023-05-10T00:48:38;4.40;99.90
11385;DHT22;5747;56.748;13.882;2023-05-10T00:51:06;4.40;99.90
11385;DHT22;5747;56.748;13.882;2023-05-10T00:53:34;4.30;99.90
11385;DHT22;5747;56.748;13.882;2023-05-10T00:56:05;4.30;99.90
11385;DHT22;5747;56.748;13.882;2023-05-10T00:58:33;4.20;99.90
11385;DHT22;5747;56.748;13.882;2023-05-10T01:01:01;4.10;99.90
11385;DHT22;5747;56.748;13.882;2023-05-10T01:03:30;4.00;99.90
11385;DHT22;5747;56.748;13.882;2023-05-10T01:05:58;4.00;99.90
11385;DHT22;5747;56.748;13.882;2023-05-10T01:08:27;3.90;99.90
11385;DHT22;5747;56.748;13.882;2023-05-10T01:10:55;3.90;99.90
11385;DHT22;5747;56.748;13.882;2023-05-10T01:13:31;3.90;99.90
11385;DHT22;5747;56.748;13.882;2023-05-10T01:16:00;3.90;99.90
11385;DHT22;5747;56.748;13.882;2023-05-10T01:18:30;3.90;99.90
11385;DHT22;5747;56.748;13.882;2023-05-10T01:21:10;4.00;99.90
11385;DHT22;5747;56.748;13.882;2023-05-10T01:23:59;4.10;99.90
11385;DHT22;5747;56.748;13.882;2023-05-10T01:27:02;4.10;99.90
11385;DHT22;5747;56.748;13.882;2023-05-10T01:30:18;4.00;99.90
11385;DHT22;5747;56.748;13.882;2023-05-10T01:32:55;4.00;99.90
11385;DHT22;5747;56.748;13.882;2023-05-10T01:35:31;4.20;99.90
11385;DHT22;5747;56.748;13.882;2023-05-10T01:38:07;4.30;99.90
11385;DHT22;5747;56.748;13.882;2023-05-10T01:40:39;4.30;99.90
11385;DHT22;5747;56.748;13.882;2023-05-10T01:43:16;4.40;99.90
11385;DHT22;5747;56.748;13.882;2023-05-10T01:45:50;4.30;99.90
11385;DHT22;5747;56.748;13.882;2023-05-10T01:48:25;4.30;99.90
11385;DHT22;5747;56.748;13.882;2023-05-10T01:50:56;4.30;99.90
11385;DHT22;5747;56.748;13.882;2023-05-10T01:53:26;4.30;99.90
11385;DHT22;5747;56.748;13.882;2023-05-10T01:55:55;4.30;99.90
11385;DHT22;5747;56.748;13.882;2023-05-10T01:58:28;4.30;99.90
11385;DHT22;5747;56.748;13.882;2023-05-10T02:00:58;4.10;99.90
11385;DHT22;5747;56.748;13.882;2023-05-10T02:03:30;4.00;99.90
11385;DHT22;5747;56.748;13.882;2023-05-10T02:06:00;3.90;99.90
11385;DHT22;5747;56.748;13.882;2023-05-10T02:08:30;3.90;99.90
11385;DHT22;5747;56.748;13.882;2023-05-10T02:10:58;3.80;99.90
11385;DHT22;5747;56.748;13.882;2023-05-10T02:13:27;3.70;99.90
11385;DHT22;5747;56.748;13.882;2023-05-10T02:15:57;3.70;99.90
11385;DHT22;5747;56.748;13.882;2023-05-10T02:18:28;3.70;99.90
11385;DHT22;5747;56.748;13.882;2023-05-10T02:20:58;3.80;99.90
11385;DHT22;5747;56.748;13.882;2023-05-10T02:23:26;3.70;99.90
11385;DHT22;5747;56.748;13.882;2023-05-10T02:25:57;3.60;99.90
11385;DHT22;5747;56.748;13.882;2023-05-10T02:28:27;3.60;99.90
11385;DHT22;5747;56.748;13.882;2023-05-10T02:30:56;3.50;99.90
11385;DHT22;5747;56.748;13.882;2023-05-10T02:33:25;3.50;99.90
11385;DHT22;5747;56.748;13.882;2023-05-10T02:35:56;3.50;99.90
11385;DHT22;5747;56.748;13.882;2023-05-10T02:38:25;3.50;99.90
11385;DHT22;5747;56.748;13.882;2023-05-10T02:40:56;3.40;99.90
11385;DHT22;5747;56.748;13.882;2023-05-10T02:43:25;3.30;99.90
11385;DHT22;5747;56.748;13.882;2023-05-10T02:45:55;3.20;99.90
11385;DHT22;5747;56.748;13.882;2023-05-10T02:48:23;3.20;99.90
11385;DHT22;5747;56.748;13.882;2023-05-10T02:50:58;3.20;99.90
11385;DHT22;5747;56.748;13.882;2023-05-10T02:53:31;3.10;99.90
11385;DHT22;5747;56.748;13.882;2023-05-10T02:56:01;3.10;99.90
11385;DHT22;5747;56.748;13.882;2023-05-10T02:58:33;3.10;99.90
11385;DHT22;5747;56.748;13.882;2023-05-10T03:01:02;3.10;99.90
11385;DHT22;5747;56.748;13.882;2023-05-10T03:03:30;3.10;99.90
11385;DHT22;5747;56.748;13.882;2023-05-10T03:06:00;3.10;99.90
11385;DHT22;5747;56.748;13.882;2023-05-10T03:08:28;3.10;99.90
11385;DHT22;5747;56.748;13.882;2023-05-10T03:11:16;3.10;99.90
11385;DHT22;5747;56.748;13.882;2023-05-10T03:13:52;3.10;99.90
11385;DHT22;5747;56.748;13.882;2023-05-10T03:16:27;3.00;99.90
11385;DHT22;5747;56.748;13.882;2023-05-10T03:19:04;3.00;99.90
11385;DHT22;5747;56.748;13.882;2023-05-10T03:21:38;3.00;99.90
11385;DHT22;5747;56.748;13.882;2023-05-10T03:24:09;3.10;99.90
11385;DHT22;5747;56.748;13.882;2023-05-10T03:26:43;3.10;99.90
11385;DHT22;5747;56.748;13.882;2023-05-10T03:29:17;3.10;99.90
11385;DHT22;5747;56.748;13.882;2023-05-10T03:31:46;3.20;99.90
11385;DHT22;5747;56.748;13.882;2023-05-10T03:34:14;3.30;99.90
11385;DHT22;5747;56.748;13.882;2023-05-10T03:36:44;3.30;99.90
11385;DHT22;5747;56.748;13.882;2023-05-10T03:39:12;3.50;99.90
11385;DHT22;5747;56.748;13.882;2023-05-10T03:41:43;3.80;99.90
11385;DHT22;5747;56.748;13.882;2023-05-10T03:44:11;4.20;99.90
11385;DHT22;5747;56.748;13.882;2023-05-10T03:46:39;4.80;99.90
11385;DHT22;5747;56.748;13.882;2023-05-10T03:49:07;5.30;99.90
11385;DHT22;5747;56.748;13.882;2023-05-10T03:52:45;5.90;99.90
11385;DHT22;5747;56.748;13.882;2023-05-10T03:55:13;6.50;99.90
11385;DHT22;5747;56.748;13.882;2023-05-10T03:58:50;7.00;99.90
11385;DHT22;5747;56.748;13.882;2023-05-10T04:01:18;7.60;99.90
11385;DHT22;5747;56.748;13.882;2023-05-10T04:03:46;8.00;99.90
11385;DHT22;5747;56.748;13.882;2023-05-10T04:06:14;8.50;99.90
11385;DHT22;5747;56.748;13.882;2023-05-10T04:08:42;8.90;99.90
11385;DHT22;5747;56.748;13.882;2023-05-10T04:11:11;9.40;99.90
11385;DHT22;5747;56.748;13.882;2023-05-10T04:13:39;9.50;99.90
11385;DHT22;5747;56.748;13.882;2023-05-10T04:16:09;9.90;99.90
11385;DHT22;5747;56.748;13.882;2023-05-10T04:18:37;10.20;99.90
11385;DHT22;5747;56.748;13.882;2023-05-10T04:21:11;10.60;99.90
11385;DHT22;5747;56.748;13.882;2023-05-10T04:23:39;10.80;99.90
11385;DHT22;5747;56.748;13.882;2023-05-10T04:26:07;11.00;99.90
